createdAt,value
2023-02-02T00:01:32.463Z,101633.31
2023-02-02T00:04:01.382Z,101637.63
2023-02-02T00:06:30.026Z,101646.19
2023-02-02T00:08:59.057Z,101636.84
2023-02-02T00:11:26.373Z,101645.34
2023-02-02T00:13:53.769Z,101640.91
2023-02-02T00:16:26.747Z,101648.53
2023-02-02T00:18:54.710Z,101645.13
2023-02-02T00:21:21.318Z,101645.13
2023-02-02T00:23:48.040Z,101646.53
2023-02-02T00:26:16.281Z,101642.22
2023-02-02T00:28:42.925Z,101644.78
2023-02-02T00:31:10.567Z,101645.59
2023-02-02T00:33:37.284Z,101636.13
2023-02-02T00:36:05.569Z,101642.22
2023-02-02T00:38:34.645Z,101650.75
2023-02-02T00:41:01.275Z,101643.13
2023-02-02T00:43:29.059Z,101638.22
2023-02-02T00:45:56.301Z,101641.97
2023-02-02T00:48:23.038Z,101637.19
2023-02-02T00:50:49.975Z,101641.59
2023-02-02T00:53:16.739Z,101633.88
2023-02-02T00:55:43.990Z,101647.78
2023-02-02T00:58:10.643Z,101648.75
2023-02-02T01:00:37.845Z,101645.47
2023-02-02T01:03:04.838Z,101642.91
2023-02-02T01:05:32.587Z,101645.47
2023-02-02T01:07:59.265Z,101651.53
2023-02-02T01:10:26.301Z,101653.28
2023-02-02T01:12:52.928Z,101649.91
2023-02-02T01:15:19.609Z,101655.06
2023-02-02T01:17:46.180Z,101653.28
2023-02-02T01:20:18.652Z,101653.06
2023-02-02T01:22:46.930Z,101657.19
2023-02-02T01:25:13.896Z,101657.03
2023-02-02T01:27:40.859Z,101653.44
2023-02-02T01:30:08.398Z,101657.66
2023-02-02T01:32:35.201Z,101660.00
2023-02-02T01:35:01.867Z,101655.56
2023-02-02T01:37:28.479Z,101654.50
2023-02-02T01:39:55.185Z,101663.72
2023-02-02T01:42:24.713Z,101665.50
2023-02-02T01:45:12.950Z,101665.25
2023-02-02T01:47:43.667Z,101658.97
2023-02-02T01:50:13.837Z,101659.53
2023-02-02T01:52:43.696Z,101658.63
2023-02-02T01:55:12.996Z,101662.47
2023-02-02T01:57:45.274Z,101663.06
2023-02-02T02:00:14.859Z,101658.63
2023-02-02T02:02:46.487Z,101665.28
2023-02-02T02:05:18.767Z,101671.97
2023-02-02T02:07:49.076Z,101671.72
2023-02-02T02:10:18.007Z,101680.88
2023-02-02T02:12:45.413Z,101684.84
2023-02-02T02:15:30.890Z,101675.38
2023-02-02T02:18:03.312Z,101675.56
2023-02-02T02:21:05.535Z,101675.22
2023-02-02T02:23:59.767Z,101674.31
2023-02-02T02:26:45.170Z,101677.69
2023-02-02T02:29:17.732Z,101671.59
2023-02-02T02:32:05.815Z,101670.66
2023-02-02T02:34:38.475Z,101655.19
2023-02-02T02:37:18.816Z,101658.47
2023-02-02T02:40:08.162Z,101667.81
2023-02-02T02:42:40.351Z,101659.28
2023-02-02T02:45:09.286Z,101657.41
2023-02-02T02:47:37.418Z,101665.84
2023-02-02T02:50:05.083Z,101654.72
2023-02-02T02:52:33.138Z,101650.38
2023-02-02T02:55:01.072Z,101658.13
2023-02-02T02:58:02.677Z,101653.66
2023-02-02T03:00:38.486Z,101654.34
2023-02-02T03:03:08.000Z,101658.44
2023-02-02T03:06:00.535Z,101661.72
2023-02-02T03:08:27.039Z,101657.38
2023-02-02T03:10:55.651Z,101668.41
2023-02-02T03:13:22.383Z,101663.25
2023-02-02T03:15:49.038Z,101662.19
2023-02-02T03:18:17.748Z,101669.78
2023-02-02T03:20:45.400Z,101665.47
2023-02-02T03:23:12.588Z,101664.53
2023-02-02T03:25:39.301Z,101669.56
2023-02-02T03:28:06.888Z,101673.75
2023-02-02T03:30:34.604Z,101665.22
2023-02-02T03:33:01.371Z,101664.41
2023-02-02T03:35:28.205Z,101664.41
2023-02-02T03:37:55.112Z,101667.81
2023-02-02T03:40:21.672Z,101672.00
2023-02-02T03:42:48.396Z,101675.53
2023-02-02T03:45:15.038Z,101676.34
2023-02-02T03:47:41.692Z,101677.16
2023-02-02T03:50:10.004Z,101674.59
2023-02-02T03:52:37.000Z,101666.97
2023-02-02T03:55:04.119Z,101659.25
2023-02-02T03:57:30.719Z,101662.88
2023-02-02T03:59:57.411Z,101663.00
2023-02-02T04:02:24.123Z,101657.97
2023-02-02T04:04:50.823Z,101659.00
2023-02-02T04:07:17.424Z,101651.41
2023-02-02T04:09:43.968Z,101652.47
2023-02-02T04:12:10.733Z,101655.03
2023-02-02T04:14:37.483Z,101654.22
2023-02-02T04:17:04.135Z,101650.03
2023-02-02T04:19:30.777Z,101652.59
2023-02-02T04:21:57.529Z,101655.28
2023-02-02T04:24:24.205Z,101650.13
2023-02-02T04:26:50.893Z,101659.63
2023-02-02T04:29:18.677Z,101663.84
2023-02-02T04:31:45.379Z,101663.97
2023-02-02T04:34:12.248Z,101677.00
2023-02-02T04:36:39.467Z,101673.59
2023-02-02T04:39:06.251Z,101668.53
2023-02-02T04:41:34.083Z,101659.88
2023-02-02T04:44:00.790Z,101669.34
2023-02-02T04:46:28.608Z,101666.91
2023-02-02T04:48:55.360Z,101669.59
2023-02-02T04:51:25.207Z,101661.88
2023-02-02T04:53:52.788Z,101663.63
2023-02-02T04:56:19.506Z,101660.22
2023-02-02T04:58:47.125Z,101655.06
2023-02-02T05:01:19.639Z,101658.47
2023-02-02T05:03:47.161Z,101661.06
2023-02-02T05:06:16.019Z,101663.72
2023-02-02T05:08:43.508Z,101665.38
2023-02-02T05:11:12.294Z,101670.41
2023-02-02T05:13:39.051Z,101671.22
2023-02-02T05:16:06.796Z,101660.91
2023-02-02T05:18:33.616Z,101672.88
2023-02-02T05:21:01.722Z,101668.53
2023-02-02T05:23:29.008Z,101667.59
2023-02-02T05:25:56.267Z,101671.69
2023-02-02T05:28:23.936Z,101673.31
2023-02-02T05:30:51.115Z,101675.91
2023-02-02T05:33:20.837Z,101677.69
2023-02-02T05:35:48.373Z,101680.25
2023-02-02T05:38:16.486Z,101679.31
2023-02-02T05:40:43.288Z,101676.72
2023-02-02T05:43:09.958Z,101680.13
2023-02-02T05:45:36.662Z,101682.56
2023-02-02T05:48:03.570Z,101678.16
2023-02-02T05:50:30.702Z,101685.75
2023-02-02T05:52:58.784Z,101683.19
2023-02-02T05:55:25.804Z,101679.78
2023-02-02T05:57:52.574Z,101679.53
2023-02-02T06:00:19.584Z,101676.00
2023-02-02T06:02:46.318Z,101675.09
2023-02-02T06:05:13.145Z,101679.19
2023-02-02T06:07:39.733Z,101679.88
2023-02-02T06:10:06.904Z,101676.94
2023-02-02T06:12:33.559Z,101681.03
2023-02-02T06:15:00.314Z,101685.00
2023-02-02T06:17:27.691Z,101683.03
2023-02-02T06:19:54.483Z,101686.28
2023-02-02T06:22:21.052Z,101677.38
2023-02-02T06:24:47.808Z,101683.22
2023-02-02T06:27:14.449Z,101681.22
2023-02-02T06:29:41.356Z,101682.72
2023-02-02T06:32:07.960Z,101690.34
2023-02-02T06:34:34.567Z,101688.59
2023-02-02T06:37:01.422Z,101700.41
2023-02-02T06:39:28.018Z,101705.47
2023-02-02T06:41:54.887Z,101707.81
2023-02-02T06:44:21.508Z,101707.81
2023-02-02T06:46:48.261Z,101708.75
2023-02-02T06:49:15.165Z,101713.31
2023-02-02T06:51:41.794Z,101722.94
2023-02-02T06:54:08.425Z,101718.97
2023-02-02T06:56:35.237Z,101730.47
2023-02-02T06:59:01.873Z,101721.34
2023-02-02T07:01:29.654Z,101719.00
2023-02-02T07:03:57.537Z,101725.22
2023-02-02T07:06:26.795Z,101715.72
2023-02-02T07:09:01.829Z,101734.84
2023-02-02T07:11:36.971Z,101729.69
2023-02-02T07:14:09.641Z,101731.44
2023-02-02T07:16:36.375Z,101734.84
2023-02-02T07:19:03.202Z,101740.00
2023-02-02T07:21:35.752Z,101741.63
2023-02-02T07:24:03.969Z,101747.59
2023-02-02T07:26:30.754Z,101748.44
2023-02-02T07:28:57.464Z,101746.00
2023-02-02T07:31:26.573Z,101748.66
2023-02-02T07:33:53.915Z,101762.41
2023-02-02T07:36:23.979Z,101758.06
2023-02-02T07:38:57.556Z,101768.50
2023-02-02T07:41:25.144Z,101764.28
2023-02-02T07:43:52.353Z,101763.34
2023-02-02T07:46:20.076Z,101765.94
2023-02-02T07:48:47.040Z,101769.44
2023-02-02T07:51:16.359Z,101768.72
2023-02-02T07:53:46.587Z,101778.09
2023-02-02T07:56:24.595Z,101776.47
2023-02-02T07:58:53.400Z,101772.25
2023-02-02T08:01:23.009Z,101779.28
2023-02-02T08:03:50.899Z,101781.75
2023-02-02T08:06:21.704Z,101782.56
2023-02-02T08:08:49.135Z,101786.78
2023-02-02T08:11:19.220Z,101787.72
2023-02-02T08:13:49.895Z,101793.69
2023-02-02T08:16:16.861Z,101797.94
2023-02-02T08:18:44.019Z,101804.84
2023-02-02T08:21:11.960Z,101806.47
2023-02-02T08:23:40.515Z,101807.56
2023-02-02T08:26:16.706Z,101807.56
2023-02-02T08:28:45.273Z,101814.34
2023-02-02T08:31:14.411Z,101808.94
2023-02-02T08:33:42.318Z,101814.81
2023-02-02T08:36:15.881Z,101819.84
2023-02-02T08:38:42.858Z,101820.81
2023-02-02T08:41:12.971Z,101824.19
2023-02-02T08:43:40.944Z,101823.25
2023-02-02T08:46:14.596Z,101826.53
2023-02-02T08:48:41.926Z,101835.78
2023-02-02T08:51:11.371Z,101845.97
2023-02-02T08:53:38.564Z,101840.81
2023-02-02T08:56:13.328Z,101848.56
2023-02-02T08:58:40.451Z,101852.66
2023-02-02T09:01:18.603Z,101854.19
2023-02-02T09:03:45.950Z,101851.53
2023-02-02T09:06:17.998Z,101852.31
2023-02-02T09:08:45.583Z,101847.16
2023-02-02T09:11:20.245Z,101859.13
2023-02-02T09:13:49.291Z,101859.13
2023-02-02T09:16:18.539Z,101862.53
2023-02-02T09:18:45.898Z,101865.13
2023-02-02T09:21:15.813Z,101868.41
2023-02-02T09:23:44.390Z,101871.91
2023-02-02T09:26:22.729Z,101879.56
2023-02-02T09:28:52.904Z,101884.59
2023-02-02T09:31:19.927Z,101882.34
2023-02-02T09:33:46.688Z,101890.22
2023-02-02T09:36:17.817Z,101899.03
2023-02-02T09:38:44.817Z,101887.75
2023-02-02T09:41:33.108Z,101898.75
2023-02-02T09:44:37.006Z,101900.53
2023-02-02T09:47:14.902Z,101906.75
2023-02-02T09:49:56.868Z,101905.09
2023-02-02T09:52:28.335Z,101913.06
2023-02-02T09:55:04.784Z,101914.03
2023-02-02T09:57:43.734Z,101919.06
2023-02-02T10:00:29.449Z,101917.78
2023-02-02T10:03:02.793Z,101924.69
2023-02-02T10:05:40.952Z,101923.03
2023-02-02T10:08:16.636Z,101922.81
2023-02-02T10:10:48.299Z,101926.09
2023-02-02T10:13:22.112Z,101925.66
2023-02-02T10:16:01.588Z,101936.44
2023-02-02T10:18:50.069Z,101936.91
2023-02-02T10:21:49.060Z,101939.03
2023-02-02T10:24:29.087Z,101940.91
2023-02-02T10:26:59.400Z,101947.13
2023-02-02T10:29:48.073Z,101945.84
2023-02-02T10:32:17.150Z,101954.03
2023-02-02T10:35:12.502Z,101959.66
2023-02-02T10:37:46.605Z,101965.41
2023-02-02T10:40:34.500Z,101965.41
2023-02-02T10:43:39.481Z,101973.16
2023-02-02T10:46:12.121Z,101970.47
2023-02-02T10:48:39.618Z,101964.13
2023-02-02T10:51:16.168Z,101973.63
2023-02-02T10:53:50.360Z,101958.47
2023-02-02T10:56:19.963Z,101962.34
2023-02-02T10:58:57.892Z,101969.63
2023-02-02T11:01:24.783Z,101957.28
2023-02-02T11:04:11.587Z,101957.06
2023-02-02T11:06:50.954Z,101958.69
2023-02-02T11:09:24.282Z,101953.28
2023-02-02T11:12:28.367Z,101964.44
2023-02-02T11:15:25.840Z,101960.78
2023-02-02T11:17:52.566Z,101954.69
2023-02-02T11:20:46.818Z,101956.44
2023-02-02T11:23:19.612Z,101958.91
2023-02-02T11:25:47.059Z,101961.38
2023-02-02T11:28:20.405Z,101952.78
2023-02-02T11:30:52.359Z,101964.66
2023-02-02T11:33:34.174Z,101957.88
2023-02-02T11:36:17.759Z,101953.38
2023-02-02T11:38:44.798Z,101952.44
2023-02-02T11:41:13.917Z,101961.84
2023-02-02T11:43:51.117Z,101954.78
2023-02-02T11:46:22.617Z,101963.47
2023-02-02T11:49:16.720Z,101959.94
2023-02-02T11:51:44.849Z,101956.41
2023-02-02T11:54:33.018Z,101961.69
2023-02-02T11:57:08.218Z,101963.38
2023-02-02T11:59:39.155Z,101962.66
2023-02-02T12:02:29.076Z,101965.13
2023-02-02T12:05:21.886Z,101966.03
2023-02-02T12:07:49.120Z,101966.03
2023-02-02T12:10:54.802Z,101965.25
2023-02-02T12:13:27.065Z,101971.22
2023-02-02T12:16:33.909Z,101974.63
2023-02-02T12:19:00.564Z,101971.13
2023-02-02T12:21:48.422Z,101971.91
2023-02-02T12:24:32.972Z,101975.31
2023-02-02T12:27:17.156Z,101968.41
2023-02-02T12:29:46.864Z,101972.63
2023-02-02T12:32:34.096Z,101969.22
2023-02-02T12:35:22.884Z,101964.88
2023-02-02T12:38:10.945Z,101964.75
2023-02-02T12:40:55.904Z,101957.94
2023-02-02T12:44:01.230Z,101961.22
2023-02-02T12:46:49.818Z,101960.16
2023-02-02T12:49:19.326Z,101957.56
2023-02-02T12:52:06.714Z,101955.81
2023-02-02T12:54:46.697Z,101954.75
2023-02-02T12:57:31.133Z,101958.97
2023-02-02T12:59:57.668Z,101948.66
2023-02-02T13:02:49.133Z,101957.94
2023-02-02T13:05:43.463Z,101950.19
2023-02-02T13:08:14.887Z,101957.94
2023-02-02T13:10:45.782Z,101949.94
2023-02-02T13:13:20.407Z,101951.69
2023-02-02T13:15:52.881Z,101957.81
2023-02-02T13:18:45.857Z,101964.63
2023-02-02T13:21:16.923Z,101956.84
2023-02-02T13:23:50.362Z,101959.22
2023-02-02T13:26:20.664Z,101967.78
2023-02-02T13:29:06.040Z,101960.03
2023-02-02T13:31:45.153Z,101960.59
2023-02-02T13:34:22.965Z,101960.59
2023-02-02T13:37:02.725Z,101963.19
2023-02-02T13:39:42.704Z,101970.00
2023-02-02T13:42:23.547Z,101972.59
2023-02-02T13:44:56.196Z,101969.19
2023-02-02T13:47:38.989Z,101972.72
2023-02-02T13:50:15.484Z,101974.47
2023-02-02T13:52:48.139Z,101973.53
2023-02-02T13:55:24.158Z,101972.84
2023-02-02T13:58:04.216Z,101977.06
2023-02-02T14:00:48.118Z,101973.53
2023-02-02T14:03:33.826Z,101977.75
2023-02-02T14:06:05.313Z,101980.59
2023-02-02T14:08:32.474Z,101987.66
2023-02-02T14:11:02.426Z,101982.63
2023-02-02T14:14:04.492Z,101983.53
2023-02-02T14:16:31.014Z,101986.94
2023-02-02T14:19:01.829Z,101986.13
2023-02-02T14:21:31.683Z,101986.25
2023-02-02T14:24:00.127Z,101989.66
2023-02-02T14:26:52.621Z,101982.00
2023-02-02T14:29:39.575Z,101983.81
2023-02-02T14:32:08.783Z,101983.53
2023-02-02T14:34:39.654Z,101981.78
2023-02-02T14:37:06.985Z,101983.66
2023-02-02T14:39:42.681Z,101992.13
2023-02-02T14:43:06.013Z,101994.84
2023-02-02T14:45:40.694Z,101985.28
2023-02-02T14:48:07.216Z,101989.53
2023-02-02T14:50:39.927Z,101992.00
2023-02-02T14:53:13.319Z,101995.41
2023-02-02T14:56:01.578Z,101991.88
2023-02-02T14:58:34.085Z,101990.00
2023-02-02T15:01:17.446Z,101989.16
2023-02-02T15:03:45.432Z,101994.56
2023-02-02T15:06:24.358Z,101997.84
2023-02-02T15:09:23.616Z,102000.44
2023-02-02T15:12:36.026Z,102012.44
2023-02-02T15:15:17.905Z,102015.97
2023-02-02T15:18:10.454Z,102014.34
2023-02-02T15:20:47.185Z,102018.81
2023-02-02T15:23:29.897Z,102020.69
2023-02-02T15:26:04.792Z,102018.81
2023-02-02T15:28:58.277Z,102015.38
2023-02-02T15:31:44.429Z,102028.31
2023-02-02T15:34:30.833Z,102031.84
2023-02-02T15:37:02.830Z,102025.03
2023-02-02T15:39:41.859Z,102020.00
2023-02-02T15:42:53.058Z,102029.38
2023-02-02T15:45:29.334Z,102033.63
2023-02-02T15:47:59.487Z,102029.38
2023-02-02T15:50:27.301Z,102030.34
2023-02-02T15:52:55.414Z,102039.00
2023-02-02T15:55:29.120Z,102035.69
2023-02-02T15:57:55.879Z,102027.94
2023-02-02T16:00:22.683Z,102030.53
2023-02-02T16:02:53.794Z,102022.91
2023-02-02T16:05:48.769Z,102030.75
2023-02-02T16:08:20.103Z,102032.41
2023-02-02T16:10:49.397Z,102034.19
2023-02-02T16:13:27.670Z,102040.19
2023-02-02T16:15:59.299Z,102046.19
2023-02-02T16:18:26.450Z,102048.75
2023-02-02T16:20:54.984Z,102046.97
2023-02-02T16:23:30.565Z,102045.34
2023-02-02T16:26:00.115Z,102050.75
2023-02-02T16:28:27.636Z,102056.75
2023-02-02T16:30:54.863Z,102055.78
2023-02-02T16:33:30.269Z,102053.47
2023-02-02T16:35:57.495Z,102055.22
2023-02-02T16:38:32.232Z,102056.84
2023-02-02T16:41:06.461Z,102055.09
2023-02-02T16:43:34.252Z,102050.88
2023-02-02T16:46:12.816Z,102056.97
2023-02-02T16:49:00.502Z,102067.31
2023-02-02T16:51:28.419Z,102067.44
2023-02-02T16:54:07.131Z,102066.63
2023-02-02T16:56:38.630Z,102079.41
2023-02-02T16:59:27.930Z,102077.78
2023-02-02T17:02:25.193Z,102083.78
2023-02-02T17:05:19.279Z,102076.81
2023-02-02T17:07:51.722Z,102083.66
2023-02-02T17:10:18.372Z,102082.81
2023-02-02T17:12:49.357Z,102086.09
2023-02-02T17:15:18.683Z,102080.94
2023-02-02T17:17:49.633Z,102084.34
2023-02-02T17:20:19.412Z,102085.19
2023-02-02T17:22:49.311Z,102088.69
2023-02-02T17:25:30.392Z,102092.09
2023-02-02T17:27:59.116Z,102094.56
2023-02-02T17:30:26.670Z,102095.53
2023-02-02T17:32:53.606Z,102095.53
2023-02-02T17:35:53.030Z,102105.84
2023-02-02T17:38:21.779Z,102092.09
2023-02-02T17:40:49.607Z,102096.44
2023-02-02T17:43:16.501Z,102105.16
2023-02-02T17:45:43.626Z,102095.63
2023-02-02T17:48:12.599Z,102097.41
2023-02-02T17:50:40.793Z,102094.69
2023-02-02T17:53:11.955Z,102088.59
2023-02-02T17:55:42.040Z,102086.81
2023-02-02T17:58:10.591Z,102078.94
2023-02-02T18:00:38.933Z,102083.28
2023-02-02T18:03:22.478Z,102077.19
2023-02-02T18:05:49.684Z,102084.94
2023-02-02T18:08:16.707Z,102083.16
2023-02-02T18:10:43.678Z,102083.88
2023-02-02T18:13:21.577Z,102089.03
2023-02-02T18:15:49.567Z,102077.91
2023-02-02T18:18:16.822Z,102076.09
2023-02-02T18:20:49.232Z,102084.69
2023-02-02T18:23:16.933Z,102082.09
2023-02-02T18:25:44.899Z,102089.03
2023-02-02T18:28:11.689Z,102089.88
2023-02-02T18:30:40.052Z,102084.63
2023-02-02T18:33:10.305Z,102080.16
2023-02-02T18:35:45.729Z,102079.19
2023-02-02T18:38:13.229Z,102083.44
2023-02-02T18:40:40.109Z,102073.09
2023-02-02T18:43:06.923Z,102077.44
2023-02-02T18:45:33.540Z,102078.38
2023-02-02T18:48:00.178Z,102079.19
2023-02-02T18:50:28.118Z,102080.16
2023-02-02T18:52:56.737Z,102082.75
2023-02-02T18:55:24.204Z,102081.09
2023-02-02T18:57:51.101Z,102082.75
2023-02-02T19:00:19.329Z,102081.78
2023-02-02T19:02:45.927Z,102081.69
2023-02-02T19:05:31.312Z,102084.25
2023-02-02T19:08:00.123Z,102090.38
2023-02-02T19:10:28.328Z,102086.94
2023-02-02T19:13:02.068Z,102090.50
2023-02-02T19:15:29.132Z,102084.38
2023-02-02T19:17:55.962Z,102078.38
2023-02-02T19:20:26.933Z,102074.03
2023-02-02T19:23:06.783Z,102073.94
2023-02-02T19:25:33.542Z,102077.44
2023-02-02T19:28:07.127Z,102079.09
2023-02-02T19:30:33.940Z,102081.69
2023-02-02T19:33:02.252Z,102081.56
2023-02-02T19:35:29.492Z,102085.88
2023-02-02T19:38:01.775Z,102085.88
2023-02-02T19:40:28.927Z,102085.88
2023-02-02T19:43:13.677Z,102071.22
2023-02-02T19:45:40.904Z,102069.44
2023-02-02T19:48:17.093Z,102063.59
2023-02-02T19:50:44.419Z,102070.50
2023-02-02T19:53:20.762Z,102064.63
2023-02-02T19:55:48.060Z,102057.00
2023-02-02T19:58:17.369Z,102064.84
2023-02-02T20:00:46.916Z,102076.03
2023-02-02T20:03:20.221Z,102072.59
2023-02-02T20:05:48.739Z,102072.59
2023-02-02T20:08:23.402Z,102076.03
2023-02-02T20:10:54.830Z,102073.31
2023-02-02T20:13:31.770Z,102070.59
2023-02-02T20:16:03.965Z,102074.03
2023-02-02T20:18:44.392Z,102074.97
2023-02-02T20:21:45.793Z,102075.78
2023-02-02T20:24:29.801Z,102083.53
2023-02-02T20:27:00.667Z,102085.31
2023-02-02T20:29:38.288Z,102086.13
2023-02-02T20:32:08.550Z,102088.72
2023-02-02T20:34:43.529Z,102077.56
2023-02-02T20:37:13.107Z,102085.19
2023-02-02T20:39:47.869Z,102078.38
2023-02-02T20:42:15.351Z,102093.06
2023-02-02T20:44:42.362Z,102092.94
2023-02-02T20:47:09.548Z,102091.19
2023-02-02T20:49:37.663Z,102095.41
2023-02-02T20:52:08.204Z,102096.22
2023-02-02T20:54:34.842Z,102101.28
2023-02-02T20:57:02.346Z,102103.06
2023-02-02T20:59:29.730Z,102098.81
2023-02-02T21:01:56.951Z,102106.44
2023-02-02T21:04:23.807Z,102093.53
2023-02-02T21:06:51.573Z,102093.53
2023-02-02T21:09:18.240Z,102084.84
2023-02-02T21:11:45.523Z,102084.84
2023-02-02T21:14:12.201Z,102096.84
2023-02-02T21:16:39.007Z,102097.75
2023-02-02T21:19:05.662Z,102090.69
2023-02-02T21:21:32.369Z,102094.13
2023-02-02T21:24:00.810Z,102091.41
2023-02-02T21:26:29.893Z,102092.22
2023-02-02T21:28:59.515Z,102100.81
2023-02-02T21:31:27.114Z,102098.22
2023-02-02T21:33:54.038Z,102081.75
2023-02-02T21:36:34.662Z,102079.16
2023-02-02T21:39:32.759Z,102089.50
2023-02-02T21:42:08.539Z,102084.34
2023-02-02T21:44:43.902Z,102068.81
2023-02-02T21:47:40.214Z,102068.72
2023-02-02T21:50:24.763Z,102066.13
2023-02-02T21:52:53.891Z,102063.56
2023-02-02T21:55:36.713Z,102072.16
2023-02-02T21:58:12.407Z,102066.97
2023-02-02T22:00:39.066Z,102079.91
2023-02-02T22:03:24.807Z,102082.34
2023-02-02T22:05:51.439Z,102078.00
2023-02-02T22:08:25.643Z,102063.44
2023-02-02T22:10:52.216Z,102077.06
2023-02-02T22:13:23.251Z,102066.72
2023-02-02T22:15:53.263Z,102063.28
2023-02-02T22:18:23.083Z,102052.03
2023-02-02T22:20:51.753Z,102040.84
2023-02-02T22:23:20.725Z,102054.59
2023-02-02T22:25:49.934Z,102063.28
2023-02-02T22:28:22.513Z,102064.13
2023-02-02T22:30:52.080Z,102062.38
2023-02-02T22:33:19.454Z,102057.06
2023-02-02T22:35:46.506Z,102063.88
2023-02-02T22:38:18.358Z,102062.13
2023-02-02T22:40:46.067Z,102053.69
2023-02-02T22:43:19.237Z,102050.13
2023-02-02T22:45:46.534Z,102049.19
2023-02-02T22:48:15.341Z,102045.66
2023-02-02T22:50:42.861Z,102039.66
2023-02-02T22:53:10.857Z,102032.72
2023-02-02T22:55:37.720Z,102021.56
2023-02-02T22:58:04.270Z,102022.28
2023-02-02T23:00:36.130Z,102031.66
2023-02-02T23:03:02.765Z,102024.03
2023-02-02T23:05:29.478Z,102017.91
2023-02-02T23:07:56.511Z,102027.44
2023-02-02T23:10:27.531Z,102011.94
2023-02-02T23:12:55.910Z,102003.34
2023-02-02T23:15:22.964Z,102004.97
2023-02-02T23:17:49.945Z,101998.03
2023-02-02T23:20:18.175Z,101985.25
2023-02-02T23:22:44.786Z,101991.25
2023-02-02T23:25:12.706Z,101981.97
2023-02-02T23:27:39.798Z,101984.56
2023-02-02T23:30:09.049Z,101988.06
2023-02-02T23:32:35.891Z,101986.31
2023-02-02T23:35:03.211Z,101979.47
2023-02-02T23:37:29.746Z,101993.25
2023-02-02T23:39:57.453Z,101994.91
2023-02-02T23:42:25.674Z,101998.41
2023-02-02T23:44:53.066Z,101982.06
2023-02-02T23:47:19.911Z,101982.91
2023-02-02T23:49:47.020Z,101976.09
2023-02-02T23:52:14.036Z,101971.72
2023-02-02T23:54:40.871Z,101982.91
2023-02-02T23:57:07.400Z,101975.13
2023-02-02T23:59:34.002Z,101976.91
